Time,TemperatureF,DewpointF,PressureIn,WindDirection,WindDirectionDegrees,WindSpeedMPH,WindSpeedGustMPH,Humidity,HourlyPrecipIn,Conditions,Clouds,dailyrainin,SoftwareType,DateUTC
2013-02-21 05:30:00,66.4,64.6,30.04,ESE,112,0.0,0.0,94,0.00,,,0.00,VWS V14.01,2013-02-21 10:30:00,
2013-02-21 05:57:00,65.9,64.1,30.05,ESE,117,0.0,0.0,94,0.00,,,0.00,VWS V14.01,2013-02-21 10:57:00,
2013-02-21 05:58:00,65.9,64.1,30.05,ESE,117,0.0,0.0,94,0.00,,,0.00,VWS V14.01,2013-02-21 10:58:00,
2013-02-21 05:59:00,65.9,64.1,30.05,ESE,117,0.0,0.0,94,0.00,,,0.00,VWS V14.01,2013-02-21 10:59:00,
2013-02-21 06:00:00,65.9,64.1,30.05,ESE,117,0.0,0.0,94,0.00,,,0.00,VWS V14.01,2013-02-21 11:00:00,
2013-02-21 06:01:00,65.9,64.1,30.05,ESE,117,0.0,0.0,94,0.00,,,0.00,VWS V14.01,2013-02-21 11:01:00,
2013-02-21 06:55:00,65.9,64.1,30.05,ESE,117,0.0,0.0,94,0.00,,,0.00,VWS V14.01,2013-02-21 11:55:00,
2013-02-21 07:00:00,65.9,64.1,30.05,ESE,117,0.0,0.0,94,0.00,,,0.00,VWS V14.01,2013-02-21 12:00:00,
2013-02-21 07:05:00,66.0,64.5,30.05,ESE,117,0.0,0.0,95,0.00,,,0.00,VWS V14.01,2013-02-21 12:05:00,
2013-02-21 07:10:00,66.0,64.5,30.06,ESE,117,0.0,0.0,95,0.00,,,0.00,VWS V14.01,2013-02-21 12:10:00,
2013-02-21 07:15:00,66.1,64.6,30.06,ESE,117,0.0,0.0,95,0.00,,,0.00,VWS V14.01,2013-02-21 12:15:00,
2013-02-21 07:20:00,66.2,64.7,30.06,ESE,117,0.0,1.0,95,0.00,,,0.00,VWS V14.01,2013-02-21 12:20:00,
2013-02-21 07:25:00,66.2,64.7,30.07,ESE,117,0.0,0.0,95,0.00,,,0.00,VWS V14.01,2013-02-21 12:25:00,
2013-02-21 07:30:00,66.2,64.7,30.06,ESE,117,0.0,1.0,95,0.00,,,0.00,VWS V14.01,2013-02-21 12:30:00,
2013-02-21 07:35:00,66.3,64.8,30.07,ESE,117,0.0,1.0,95,0.00,,,0.00,VWS V14.01,2013-02-21 12:35:00,
2013-02-21 07:40:00,66.3,64.5,30.07,ESE,117,0.0,0.0,94,0.00,,,0.00,VWS V14.01,2013-02-21 12:40:00,
2013-02-21 07:45:00,66.4,64.6,30.07,ESE,117,0.0,0.0,94,0.00,,,0.00,VWS V14.01,2013-02-21 12:45:00,
2013-02-21 07:50:00,66.6,65.1,30.07,ESE,117,0.0,1.0,95,0.00,,,0.00,VWS V14.01,2013-02-21 12:50:00,
2013-02-21 07:55:00,67.0,65.5,30.07,ESE,117,0.0,0.0,95,0.00,,,0.00,VWS V14.01,2013-02-21 12:55:00,
2013-02-21 08:00:00,67.6,66.1,30.07,ESE,115,0.0,1.0,95,0.00,,,0.00,VWS V14.01,2013-02-21 13:00:00,
2013-02-21 08:05:00,68.3,66.5,30.07,ESE,115,0.0,1.0,94,0.00,,,0.00,VWS V14.01,2013-02-21 13:05:00,
2013-02-21 08:10:00,68.8,66.7,30.07,ESE,115,0.0,1.0,93,0.00,,,0.00,VWS V14.01,2013-02-21 13:10:00,
2013-02-21 08:15:00,69.8,66.7,30.08,ESE,115,0.0,1.0,90,0.00,,,0.00,VWS V14.01,2013-02-21 13:15:00,
2013-02-21 08:20:00,70.9,66.8,30.07,ESE,115,0.0,1.0,87,0.00,,,0.00,VWS V14.01,2013-02-21 13:20:00,
2013-02-21 08:25:00,71.6,67.2,30.08,East,90,0.0,1.0,86,0.00,,,0.00,VWS V14.01,2013-02-21 13:25:00,
2013-02-21 08:30:00,72.4,67.3,30.08,East,90,0.0,1.0,84,0.00,,,0.00,VWS V14.01,2013-02-21 13:30:00,
2013-02-21 08:35:00,72.8,67.3,30.08,East,90,0.0,1.0,83,0.00,,,0.00,VWS V14.01,2013-02-21 13:35:00,
2013-02-21 08:40:00,73.1,67.3,30.08,East,90,0.0,1.0,82,0.00,,,0.00,VWS V14.01,2013-02-21 13:40:00,
2013-02-21 08:45:00,73.6,67.1,30.08,ENE,67,0.0,2.0,80,0.00,,,0.00,VWS V14.01,2013-02-21 13:45:00,
2013-02-21 08:50:00,74.4,66.7,30.09,SE,130,1.0,3.0,77,0.00,,,0.00,VWS V14.01,2013-02-21 13:50:00,
2013-02-21 08:55:00,75.0,66.6,30.09,NE,52,1.0,1.0,75,0.00,,,0.00,VWS V14.01,2013-02-21 13:55:00,
2013-02-21 09:00:00,75.7,67.2,30.09,East,88,0.0,5.0,75,0.00,,,0.00,VWS V14.01,2013-02-21 14:00:00,
2013-02-21 09:05:00,76.3,66.2,30.09,ESE,118,0.0,5.0,71,0.00,,,0.00,VWS V14.01,2013-02-21 14:05:00,
2013-02-21 09:10:00,76.8,66.7,30.09,ENE,78,0.0,1.0,71,0.00,,,0.00,VWS V14.01,2013-02-21 14:10:00,
2013-02-21 09:15:00,77.3,66.8,30.10,ESE,103,0.0,4.0,70,0.00,,,0.00,VWS V14.01,2013-02-21 14:15:00,
2013-02-21 09:20:00,78.1,66.3,30.09,ENE,63,2.0,4.0,67,0.00,,,0.00,VWS V14.01,2013-02-21 14:20:00,
2013-02-21 09:25:00,78.2,65.9,30.10,East,90,2.0,3.0,66,0.00,,,0.00,VWS V14.01,2013-02-21 14:25:00,
2013-02-21 09:30:00,78.0,66.2,30.09,ESE,115,0.0,6.0,67,0.00,,,0.00,VWS V14.01,2013-02-21 14:30:00,
2013-02-21 09:35:00,78.3,66.0,30.09,ESE,102,1.0,6.0,66,0.00,,,0.00,VWS V14.01,2013-02-21 14:35:00,
2013-02-21 09:40:00,78.5,66.2,30.09,ESE,115,1.0,3.0,66,0.00,,,0.00,VWS V14.01,2013-02-21 14:40:00,
2013-02-21 09:45:00,78.9,66.2,30.09,ENE,66,1.0,5.0,65,0.00,,,0.00,VWS V14.01,2013-02-21 14:45:00,
2013-02-21 09:50:00,79.2,65.5,30.09,East,101,5.0,8.0,63,0.00,,,0.00,VWS V14.01,2013-02-21 14:50:00,
2013-02-21 09:55:00,78.7,65.1,30.09,SSE,155,5.0,5.0,63,0.00,,,0.00,VWS V14.01,2013-02-21 14:55:00,
2013-02-21 10:00:00,78.9,65.2,30.09,SE,145,3.0,9.0,63,0.00,,,0.00,VWS V14.01,2013-02-21 15:00:00,
2013-02-21 10:05:00,79.6,65.4,30.09,North,9,1.0,9.0,62,0.00,,,0.00,VWS V14.01,2013-02-21 15:05:00,
2013-02-21 10:10:00,80.2,65.5,30.09,ESE,102,5.0,9.0,61,0.00,,,0.00,VWS V14.01,2013-02-21 15:10:00,
2013-02-21 10:15:00,80.0,65.4,30.08,SE,124,3.0,9.0,61,0.00,,,0.00,VWS V14.01,2013-02-21 15:15:00,
2013-02-21 10:20:00,80.2,65.5,30.08,East,84,2.0,10.0,61,0.00,,,0.00,VWS V14.01,2013-02-21 15:20:00,
2013-02-21 10:25:00,80.4,65.3,30.09,SE,132,3.0,6.0,60,0.00,,,0.00,VWS V14.01,2013-02-21 15:25:00,
2013-02-21 10:30:00,80.3,64.7,30.09,SE,134,4.0,8.0,59,0.00,,,0.00,VWS V14.01,2013-02-21 15:30:00,
2013-02-21 10:35:00,80.5,64.4,30.09,ESE,109,1.0,9.0,58,0.00,,,0.00,VWS V14.01,2013-02-21 15:35:00,
2013-02-21 10:40:00,80.8,64.7,30.09,NE,54,2.0,2.0,58,0.00,,,0.00,VWS V14.01,2013-02-21 15:40:00,
2013-02-21 10:45:00,81.5,64.8,30.09,SE,130,4.0,9.0,57,0.00,,,0.00,VWS V14.01,2013-02-21 15:45:00,
2013-02-21 10:50:00,81.9,64.7,30.09,East,96,2.0,9.0,56,0.00,,,0.00,VWS V14.01,2013-02-21 15:50:00,
2013-02-21 10:55:00,81.3,64.6,30.09,SE,124,0.0,3.0,57,0.00,,,0.00,VWS V14.01,2013-02-21 15:55:00,
2013-02-21 11:00:00,82.0,65.3,30.09,SE,132,1.0,10.0,57,0.00,,,0.00,VWS V14.01,2013-02-21 16:00:00,
2013-02-21 11:05:00,82.2,66.0,30.09,East,96,2.0,10.0,58,0.00,,,0.00,VWS V14.01,2013-02-21 16:05:00,
2013-02-21 11:10:00,81.5,65.3,30.09,ESE,110,7.0,11.0,58,0.00,,,0.00,VWS V14.01,2013-02-21 16:10:00,
2013-02-21 11:15:00,81.0,65.8,30.09,SE,140,0.0,11.0,60,0.00,,,0.00,VWS V14.01,2013-02-21 16:15:00,
2013-02-21 11:20:00,82.0,65.3,30.09,East,100,2.0,11.0,57,0.00,,,0.00,VWS V14.01,2013-02-21 16:20:00,
2013-02-21 11:25:00,82.1,65.4,30.09,ESE,114,0.0,3.0,57,0.00,,,0.00,VWS V14.01,2013-02-21 16:25:00,
2013-02-21 11:30:00,81.9,65.2,30.09,NE,46,0.0,3.0,57,0.00,,,0.00,VWS V14.01,2013-02-21 16:30:00,
2013-02-21 11:35:00,81.9,65.2,30.09,NNE,28,7.0,7.0,57,0.00,,,0.00,VWS V14.01,2013-02-21 16:35:00,
2013-02-21 11:40:00,81.9,64.2,30.09,ESE,111,3.0,3.0,55,0.00,,,0.00,VWS V14.01,2013-02-21 16:40:00,
2013-02-21 11:45:00,81.0,64.8,30.09,SE,124,0.0,7.0,58,0.00,,,0.00,VWS V14.01,2013-02-21 16:45:00,
2013-02-21 11:50:00,81.8,65.6,30.09,ESE,123,1.0,7.0,58,0.00,,,0.00,VWS V14.01,2013-02-21 16:50:00,
2013-02-21 11:55:00,82.5,65.2,30.09,ESE,120,0.0,4.0,56,0.00,,,0.00,VWS V14.01,2013-02-21 16:55:00,
2013-02-21 12:00:00,81.7,65.0,30.09,East,85,1.0,7.0,57,0.00,,,0.00,VWS V14.01,2013-02-21 17:00:00,
2013-02-21 12:05:00,82.3,65.6,30.09,SSE,154,2.0,8.0,57,0.00,,,0.00,VWS V14.01,2013-02-21 17:05:00,
2013-02-21 12:10:00,81.9,65.7,30.08,ESE,119,2.0,5.0,58,0.00,,,0.00,VWS V14.01,2013-02-21 17:10:00,
2013-02-21 12:15:00,82.7,65.4,30.08,ENE,65,4.0,8.0,56,0.00,,,0.00,VWS V14.01,2013-02-21 17:15:00,
2013-02-21 12:20:00,82.2,66.0,30.08,NE,52,0.0,8.0,58,0.00,,,0.00,VWS V14.01,2013-02-21 17:20:00,
2013-02-21 12:25:00,82.6,65.8,30.08,ESE,110,4.0,6.0,57,0.00,,,0.00,VWS V14.01,2013-02-21 17:25:00,
2013-02-21 12:30:00,83.9,65.5,30.08,East,97,3.0,9.0,54,0.00,,,0.00,VWS V14.01,2013-02-21 17:30:00,
2013-02-21 12:35:00,83.0,65.2,30.08,ENE,61,0.0,9.0,55,0.00,,,0.00,VWS V14.01,2013-02-21 17:35:00,
2013-02-21 12:40:00,82.1,64.3,30.07,South,171,5.0,7.0,55,0.00,,,0.00,VWS V14.01,2013-02-21 17:40:00,
2013-02-21 12:45:00,83.4,65.6,30.07,SSE,168,4.0,11.0,55,0.00,,,0.00,VWS V14.01,2013-02-21 17:45:00,
2013-02-21 12:50:00,83.6,65.2,30.07,SE,127,4.0,11.0,54,0.00,,,0.00,VWS V14.01,2013-02-21 17:50:00,
2013-02-21 12:55:00,82.8,65.5,30.07,SE,130,0.0,4.0,56,0.00,,,0.00,VWS V14.01,2013-02-21 17:55:00,
2013-02-21 13:00:00,82.6,64.8,30.07,ESE,104,1.0,6.0,55,0.00,,,0.00,VWS V14.01,2013-02-21 18:00:00,
2013-02-21 13:05:00,82.3,65.6,30.07,ESE,102,4.0,6.0,57,0.00,,,0.00,VWS V14.01,2013-02-21 18:05:00,
2013-02-21 13:10:00,83.4,66.6,30.06,North,5,1.0,7.0,57,0.00,,,0.00,VWS V14.01,2013-02-21 18:10:00,
2013-02-21 13:15:00,84.9,66.4,30.06,ESE,112,1.0,7.0,54,0.00,,,0.00,VWS V14.01,2013-02-21 18:15:00,
2013-02-21 13:20:00,84.6,66.1,30.06,ENE,57,7.0,8.0,54,0.00,,,0.00,VWS V14.01,2013-02-21 18:20:00,
2013-02-21 13:25:00,85.0,65.4,30.06,ESE,119,5.0,8.0,52,0.00,,,0.00,VWS V14.01,2013-02-21 18:25:00,
2013-02-21 13:30:00,83.6,66.3,30.06,ESE,111,4.0,12.0,56,0.00,,,0.00,VWS V14.01,2013-02-21 18:30:00,
2013-02-21 13:35:00,84.1,66.7,30.06,ENE,65,3.0,12.0,56,0.00,,,0.00,VWS V14.01,2013-02-21 18:35:00,
2013-02-21 13:40:00,83.9,65.5,30.05,SSW,201,2.0,3.0,54,0.00,,,0.00,VWS V14.01,2013-02-21 18:40:00,
2013-02-21 13:45:00,83.3,66.0,30.05,South,184,4.0,10.0,56,0.00,,,0.00,VWS V14.01,2013-02-21 18:45:00,
2013-02-21 13:50:00,82.9,66.1,30.05,South,171,3.0,10.0,57,0.00,,,0.00,VWS V14.01,2013-02-21 18:50:00,
2013-02-21 13:55:00,83.5,66.2,30.04,East,81,7.0,9.0,56,0.00,,,0.00,VWS V14.01,2013-02-21 18:55:00,
2013-02-21 14:00:00,83.0,66.2,30.04,SSE,167,5.0,11.0,57,0.00,,,0.00,VWS V14.01,2013-02-21 19:00:00,
2013-02-21 14:05:00,83.2,66.4,30.04,ESE,110,2.0,11.0,57,0.00,,,0.00,VWS V14.01,2013-02-21 19:05:00,
2013-02-21 14:10:00,84.3,66.9,30.04,SSE,165,2.0,2.0,56,0.00,,,0.00,VWS V14.01,2013-02-21 19:10:00,
2013-02-21 14:15:00,85.4,66.9,30.03,SSW,198,1.0,3.0,54,0.00,,,0.00,VWS V14.01,2013-02-21 19:15:00,
2013-02-21 14:20:00,84.9,66.4,30.03,SSE,150,2.0,11.0,54,0.00,,,0.00,VWS V14.01,2013-02-21 19:20:00,
2013-02-21 14:25:00,83.7,65.8,30.03,SSE,162,3.0,8.0,55,0.00,,,0.00,VWS V14.01,2013-02-21 19:25:00,
2013-02-21 14:30:00,84.5,66.1,30.03,SE,138,1.0,11.0,54,0.00,,,0.00,VWS V14.01,2013-02-21 19:30:00,
2013-02-21 14:35:00,84.5,66.1,30.03,ESE,118,0.0,11.0,54,0.00,,,0.00,VWS V14.01,2013-02-21 19:35:00,
2013-02-21 14:40:00,85.4,66.9,30.03,SSE,154,2.0,7.0,54,0.00,,,0.00,VWS V14.01,2013-02-21 19:40:00,
2013-02-21 14:45:00,84.4,65.4,30.03,East,82,3.0,9.0,53,0.00,,,0.00,VWS V14.01,2013-02-21 19:45:00,
2013-02-21 14:50:00,83.3,65.5,30.03,ESE,115,4.0,11.0,55,0.00,,,0.00,VWS V14.01,2013-02-21 19:50:00,
2013-02-21 14:55:00,83.4,65.6,30.03,NNE,20,3.0,4.0,55,0.00,,,0.00,VWS V14.01,2013-02-21 19:55:00,
2013-02-21 15:00:00,83.9,65.5,30.03,ESE,112,4.0,9.0,54,0.00,,,0.00,VWS V14.01,2013-02-21 20:00:00,
2013-02-21 15:05:00,84.2,65.8,30.03,East,98,3.0,9.0,54,0.00,,,0.00,VWS V14.01,2013-02-21 20:05:00,
2013-02-21 15:10:00,82.9,65.6,30.03,SSE,158,2.0,4.0,56,0.00,,,0.00,VWS V14.01,2013-02-21 20:10:00,
2013-02-21 15:15:00,82.3,65.6,30.03,East,82,1.0,11.0,57,0.00,,,0.00,VWS V14.01,2013-02-21 20:15:00,
2013-02-21 15:22:00,82.5,65.8,30.03,South,178,4.0,11.0,57,0.00,,,0.00,VWS V14.01,2013-02-21 20:22:00,
2013-02-21 15:27:00,81.4,66.2,30.03,SSE,147,3.0,7.0,60,0.00,,,0.00,VWS V14.01,2013-02-21 20:27:00,
2013-02-21 15:32:00,83.0,66.7,30.03,ESE,116,4.0,9.0,58,0.00,,,0.00,VWS V14.01,2013-02-21 20:32:00,
2013-02-21 15:37:00,82.7,66.4,30.03,ESE,117,1.0,9.0,58,0.00,,,0.00,VWS V14.01,2013-02-21 20:37:00,
2013-02-21 15:42:00,83.5,66.7,30.03,East,98,1.0,7.0,57,0.00,,,0.00,VWS V14.01,2013-02-21 20:42:00,
2013-02-21 15:47:00,82.9,66.1,30.02,East,92,0.0,9.0,57,0.00,,,0.00,VWS V14.01,2013-02-21 20:47:00,
2013-02-21 15:52:00,82.9,66.1,30.03,SE,144,4.0,11.0,57,0.00,,,0.00,VWS V14.01,2013-02-21 20:52:00,
2013-02-21 15:57:00,81.9,66.2,30.03,SE,144,4.0,10.0,59,0.00,,,0.00,VWS V14.01,2013-02-21 20:57:00,
2013-02-21 16:02:00,81.7,66.9,30.03,East,86,2.0,10.0,61,0.00,,,0.00,VWS V14.01,2013-02-21 21:02:00,
2013-02-21 16:07:00,82.5,67.7,30.03,East,82,2.0,10.0,61,0.00,,,0.00,VWS V14.01,2013-02-21 21:07:00,
2013-02-21 16:12:00,83.3,67.5,30.03,WNW,303,1.0,6.0,59,0.00,,,0.00,VWS V14.01,2013-02-21 21:12:00,
2013-02-21 16:17:00,83.5,67.2,30.03,East,92,1.0,7.0,58,0.00,,,0.00,VWS V14.01,2013-02-21 21:17:00,
2013-02-21 16:22:00,83.3,67.5,30.03,SSE,157,1.0,7.0,59,0.00,,,0.00,VWS V14.01,2013-02-21 21:22:00,
2013-02-21 16:27:00,81.6,66.9,30.03,ESE,121,5.0,7.0,61,0.00,,,0.00,VWS V14.01,2013-02-21 21:27:00,
2013-02-21 16:32:00,81.5,67.2,30.03,East,88,6.0,11.0,62,0.00,,,0.00,VWS V14.01,2013-02-21 21:32:00,
2013-02-21 16:37:00,82.2,67.4,30.03,ESE,109,2.0,11.0,61,0.00,,,0.00,VWS V14.01,2013-02-21 21:37:00,
2013-02-21 16:42:00,83.1,67.3,30.03,NE,55,1.0,3.0,59,0.00,,,0.00,VWS V14.01,2013-02-21 21:42:00,
2013-02-21 16:47:00,83.0,66.7,30.03,SE,129,1.0,7.0,58,0.00,,,0.00,VWS V14.01,2013-02-21 21:47:00,
2013-02-21 16:52:00,82.9,67.1,30.03,SSE,163,3.0,7.0,59,0.00,,,0.00,VWS V14.01,2013-02-21 21:52:00,
2013-02-21 16:57:00,82.4,66.7,30.03,ESE,121,2.0,8.0,59,0.00,,,0.00,VWS V14.01,2013-02-21 21:57:00,
2013-02-21 17:02:00,82.0,66.8,30.03,ESE,111,3.0,11.0,60,0.00,,,0.00,VWS V14.01,2013-02-21 22:02:00,
2013-02-21 17:07:00,81.4,66.2,30.03,East,97,3.0,11.0,60,0.00,,,0.00,VWS V14.01,2013-02-21 22:07:00,
2013-02-21 17:12:00,81.4,66.7,30.04,East,100,1.0,11.0,61,0.00,,,0.00,VWS V14.01,2013-02-21 22:12:00,
2013-02-21 17:17:00,81.7,66.9,30.03,East,94,6.0,11.0,61,0.00,,,0.00,VWS V14.01,2013-02-21 22:17:00,
2013-02-21 17:22:00,81.9,67.1,30.03,East,92,0.0,11.0,61,0.00,,,0.00,VWS V14.01,2013-02-21 22:22:00,
2013-02-21 17:27:00,80.7,66.5,30.03,East,100,2.0,7.0,62,0.00,,,0.00,VWS V14.01,2013-02-21 22:27:00,
2013-02-21 17:32:00,81.0,66.8,30.03,ESE,123,2.0,7.0,62,0.00,,,0.00,VWS V14.01,2013-02-21 22:32:00,
2013-02-21 17:37:00,80.6,66.4,30.03,ESE,107,3.0,9.0,62,0.00,,,0.00,VWS V14.01,2013-02-21 22:37:00,
2013-02-21 17:42:00,80.1,66.8,30.03,ESE,123,7.0,7.0,64,0.00,,,0.00,VWS V14.01,2013-02-21 22:42:00,
2013-02-21 17:47:00,79.7,66.9,30.04,ESE,110,1.0,7.0,65,0.00,,,0.00,VWS V14.01,2013-02-21 22:47:00,
2013-02-21 17:52:00,79.8,67.4,30.04,ESE,103,7.0,8.0,66,0.00,,,0.00,VWS V14.01,2013-02-21 22:52:00,
2013-02-21 17:57:00,79.2,66.9,30.04,SSW,192,1.0,5.0,66,0.00,,,0.00,VWS V14.01,2013-02-21 22:57:00,
2013-02-21 18:02:00,78.7,66.8,30.04,ENE,76,0.0,7.0,67,0.00,,,0.00,VWS V14.01,2013-02-21 23:02:00,
2013-02-21 18:07:00,78.2,66.4,30.04,East,89,0.0,7.0,67,0.00,,,0.00,VWS V14.01,2013-02-21 23:07:00,
2013-02-21 18:12:00,77.7,66.3,30.04,SE,133,3.0,9.0,68,0.00,,,0.00,VWS V14.01,2013-02-21 23:12:00,
2013-02-21 18:17:00,76.8,66.3,30.04,ESE,121,4.0,9.0,70,0.00,,,0.00,VWS V14.01,2013-02-21 23:17:00,
2013-02-21 18:22:00,76.2,66.5,30.04,SSE,153,5.0,11.0,72,0.00,,,0.00,VWS V14.01,2013-02-21 23:22:00,
2013-02-21 18:27:00,75.6,66.3,30.04,SSE,163,3.0,7.0,73,0.00,,,0.00,VWS V14.01,2013-02-21 23:27:00,
2013-02-21 18:32:00,75.2,66.3,30.04,East,98,1.0,9.0,74,0.00,,,0.00,VWS V14.01,2013-02-21 23:32:00,
2013-02-21 18:37:00,75.0,66.2,30.04,ESE,103,1.0,9.0,74,0.00,,,0.00,VWS V14.01,2013-02-21 23:37:00,
2013-02-21 18:42:00,74.8,66.3,30.04,East,96,1.0,4.0,75,0.00,,,0.00,VWS V14.01,2013-02-21 23:42:00,
2013-02-21 18:47:00,74.7,66.3,30.04,East,94,0.0,8.0,75,0.00,,,0.00,VWS V14.01,2013-02-21 23:47:00,
2013-02-21 18:52:00,74.5,66.4,30.04,ESE,112,2.0,8.0,76,0.00,,,0.00,VWS V14.01,2013-02-21 23:52:00,
2013-02-21 18:57:00,74.3,66.2,30.04,ESE,105,4.0,4.0,76,0.00,,,0.00,VWS V14.01,2013-02-21 23:57:00,
2013-02-21 19:02:00,74.1,66.1,30.04,ESE,105,1.0,4.0,76,0.00,,,0.00,VWS V14.01,2013-02-22 00:02:00,
2013-02-21 19:07:00,74.0,66.3,30.04,SE,140,0.0,5.0,77,0.00,,,0.00,VWS V14.01,2013-02-22 00:07:00,
2013-02-21 19:12:00,73.8,66.2,30.04,ESE,106,1.0,7.0,77,0.00,,,0.00,VWS V14.01,2013-02-22 00:12:00,
2013-02-21 19:17:00,73.7,66.1,30.04,ESE,117,1.0,7.0,77,0.00,,,0.00,VWS V14.01,2013-02-22 00:17:00,
2013-02-21 19:22:00,73.7,66.1,30.04,East,98,3.0,7.0,77,0.00,,,0.00,VWS V14.01,2013-02-22 00:22:00,
2013-02-21 19:27:00,73.6,65.9,30.04,ESE,115,0.0,2.0,77,0.00,,,0.00,VWS V14.01,2013-02-22 00:27:00,
2013-02-21 19:32:00,73.4,65.8,30.04,SE,134,1.0,4.0,77,0.00,,,0.00,VWS V14.01,2013-02-22 00:32:00,
2013-02-21 19:37:00,73.4,65.8,30.04,East,87,2.0,4.0,77,0.00,,,0.00,VWS V14.01,2013-02-22 00:37:00,
2013-02-21 19:42:00,73.2,65.6,30.04,ESE,115,1.0,5.0,77,0.00,,,0.00,VWS V14.01,2013-02-22 00:42:00,
2013-02-21 19:47:00,73.1,65.5,30.04,ESE,105,0.0,5.0,77,0.00,,,0.00,VWS V14.01,2013-02-22 00:47:00,
2013-02-21 19:52:00,73.0,65.4,30.04,East,97,0.0,5.0,77,0.00,,,0.00,VWS V14.01,2013-02-22 00:52:00,
2013-02-21 19:57:00,72.9,65.3,30.04,ENE,78,2.0,3.0,77,0.00,,,0.00,VWS V14.01,2013-02-22 00:57:00,
2013-02-21 20:02:00,72.8,65.2,30.05,ESE,108,0.0,4.0,77,0.00,,,0.00,VWS V14.01,2013-02-22 01:02:00,
2013-02-21 20:07:00,72.8,65.2,30.05,ENE,76,0.0,4.0,77,0.00,,,0.00,VWS V14.01,2013-02-22 01:07:00,
2013-02-21 20:12:00,72.7,65.1,30.05,ENE,78,0.0,1.0,77,0.00,,,0.00,VWS V14.01,2013-02-22 01:12:00,
2013-02-21 20:17:00,72.5,64.9,30.05,ESE,103,0.0,1.0,77,0.00,,,0.00,VWS V14.01,2013-02-22 01:17:00,
2013-02-21 20:22:00,72.4,64.8,30.05,ESE,103,0.0,1.0,77,0.00,,,0.00,VWS V14.01,2013-02-22 01:22:00,
2013-02-21 20:27:00,72.2,65.0,30.05,ENE,78,0.0,1.0,78,0.00,,,0.00,VWS V14.01,2013-02-22 01:27:00,
2013-02-21 20:32:00,72.1,64.9,30.05,ENE,78,0.0,1.0,78,0.00,,,0.00,VWS V14.01,2013-02-22 01:32:00,
2013-02-21 20:37:00,72.0,64.8,30.05,ESE,109,0.0,3.0,78,0.00,,,0.00,VWS V14.01,2013-02-22 01:37:00,
2013-02-21 20:42:00,71.9,65.0,30.06,ESE,115,0.0,1.0,79,0.00,,,0.00,VWS V14.01,2013-02-22 01:42:00,
2013-02-21 20:47:00,71.9,65.0,30.05,ESE,115,0.0,1.0,79,0.00,,,0.00,VWS V14.01,2013-02-22 01:47:00,
2013-02-21 20:52:00,71.8,64.9,30.06,ESE,115,0.0,1.0,79,0.00,,,0.00,VWS V14.01,2013-02-22 01:52:00,
2013-02-21 20:57:00,71.7,64.8,30.06,ESE,115,0.0,0.0,79,0.00,,,0.00,VWS V14.01,2013-02-22 01:57:00,
2013-02-21 21:02:00,71.6,64.8,30.05,ESE,115,0.0,0.0,79,0.00,,,0.00,VWS V14.01,2013-02-22 02:02:00,
2013-02-21 21:06:00,71.5,65.0,30.05,ESE,115,0.0,1.0,80,0.00,,,0.00,VWS V14.01,2013-02-22 02:06:00,
2013-02-21 21:11:00,71.4,64.9,30.05,ESE,115,0.0,2.0,80,0.00,,,0.00,VWS V14.01,2013-02-22 02:11:00,
2013-02-21 21:16:00,71.3,64.8,30.05,ESE,110,0.0,2.0,80,0.00,,,0.00,VWS V14.01,2013-02-22 02:16:00,
2013-02-21 21:22:00,71.3,64.8,30.06,ESE,113,0.0,2.0,80,0.00,,,0.00,VWS V14.01,2013-02-22 02:22:00,
2013-02-21 21:27:00,71.3,64.8,30.06,ESE,117,0.0,3.0,80,0.00,,,0.00,VWS V14.01,2013-02-22 02:27:00,
2013-02-21 21:31:00,71.3,64.8,30.06,ESE,117,0.0,3.0,80,0.00,,,0.00,VWS V14.01,2013-02-22 02:31:00,
2013-02-21 21:36:00,71.2,64.7,30.06,ESE,114,1.0,3.0,80,0.00,,,0.00,VWS V14.01,2013-02-22 02:36:00,
2013-02-21 21:41:00,71.2,65.1,30.06,ESE,117,0.0,1.0,81,0.00,,,0.00,VWS V14.01,2013-02-22 02:41:00,
2013-02-21 21:46:00,71.1,64.6,30.06,ESE,117,0.0,1.0,80,0.00,,,0.00,VWS V14.01,2013-02-22 02:46:00,
2013-02-21 21:51:00,71.1,64.6,30.06,East,93,1.0,2.0,80,0.00,,,0.00,VWS V14.01,2013-02-22 02:51:00,
2013-02-21 21:56:00,71.1,64.6,30.06,East,80,0.0,1.0,80,0.00,,,0.00,VWS V14.01,2013-02-22 02:56:00,
2013-02-21 22:01:00,71.1,64.6,30.06,ENE,77,0.0,1.0,80,0.00,,,0.00,VWS V14.01,2013-02-22 03:01:00,
2013-02-21 22:06:00,71.1,65.0,30.06,ENE,77,0.0,1.0,81,0.00,,,0.00,VWS V14.01,2013-02-22 03:06:00,
2013-02-21 22:11:00,71.0,64.9,30.06,ENE,77,0.0,0.0,81,0.00,,,0.00,VWS V14.01,2013-02-22 03:11:00,